Schneifelwetter: Wetterstation Hallschlag, 537 m . NN
Wetterdaten: Dienstag, 08.11.2011
Datum Zeit Temp. A. Feuchte A. Luftdruck Regen Wind Richtung Richtung Sonnenschein Helligkeit T Regen Taupunkt Windchill
08.11.2011 00:09 6,3 C 99 % 1014 hPa 0,0 l/m 14,1 km/h (3 Bft) O-NO22.5 65 0 min 0 lux 0 min 6,2 C 1,1 C
08.11.2011 00:24 6,2 C 99 % 1014 hPa 0,0 l/m 11,7 km/h (2 Bft) O-NO22.5 65 0 min 0 lux 0 min 6,1 C 2,3 C
08.11.2011 00:39 6,2 C 99 % 1014 hPa 0,0 l/m 11,8 km/h (2 Bft) O-NO22.5 60 0 min 0 lux 0 min 6,1 C 2,3 C
08.11.2011 00:54 6,2 C 99 % 1014 hPa 0,0 l/m 13,8 km/h (3 Bft) O-NO45 60 0 min 0 lux 0 min 6,1 C 1,1 C
08.11.2011 01:09 6,2 C 99 % 1014 hPa 0,0 l/m 14,1 km/h (3 Bft) O22.5 80 0 min 0 lux 0 min 6,1 C 1,0 C
08.11.2011 01:24 6,1 C 99 % 1014 hPa 0,0 l/m 10,9 km/h (2 Bft) O-NO22.5 65 0 min 0 lux 0 min 6,0 C 2,7 C
08.11.2011 01:39 6,1 C 99 % 1014 hPa 0,0 l/m 9,6 km/h (2 Bft) O-NO45 70 0 min 0 lux 0 min 6,0 C 3,6 C
08.11.2011 01:54 6,1 C 99 % 1014 hPa 0,0 l/m 14,0 km/h (3 Bft) O-NO22.5 65 0 min 0 lux 0 min 6,0 C 0,9 C
08.11.2011 02:09 6,1 C 99 % 1014 hPa 0,0 l/m 15,4 km/h (3 Bft) O-NO22.5 65 0 min 0 lux 0 min 6,0 C 0,2 C
08.11.2011 02:24 6,1 C 99 % 1014 hPa 0,0 l/m 13,4 km/h (3 Bft) O-NO45 65 0 min 0 lux 0 min 6,0 C 1,2 C
08.11.2011 02:39 6,1 C 99 % 1014 hPa 0,0 l/m 12,4 km/h (3 Bft) O22.5 85 0 min 0 lux 0 min 6,0 C 1,8 C
08.11.2011 02:54 6,1 C 99 % 1014 hPa 0,0 l/m 7,1 km/h (2 Bft) O-SO45 115 0 min 0 lux 0 min 6,0 C 5,5 C
08.11.2011 03:09 6,0 C 99 % 1014 hPa 0,0 l/m 6,3 km/h (2 Bft) O-NO45 70 0 min 0 lux 0 min 5,9 C 6,0 C
08.11.2011 03:24 5,8 C 99 % 1014 hPa 0,0 l/m 8,9 km/h (2 Bft) SO45 125 0 min 0 lux 0 min 5,7 C 3,7 C
08.11.2011 03:39 6,0 C 99 % 1014 hPa 0,0 l/m 7,9 km/h (2 Bft) S-SO22.5 150 0 min 0 lux 0 min 5,9 C 4,7 C
08.11.2011 03:54 6,0 C 99 % 1014 hPa 0,0 l/m 6,4 km/h (2 Bft) SO 140 0 min 0 lux 0 min 5,9 C 6,0 C
08.11.2011 04:09 6,1 C 99 % 1014 hPa 0,0 l/m 9,7 km/h (2 Bft) SO22.5 135 0 min 0 lux 0 min 6,0 C 3,5 C
08.11.2011 04:24 6,1 C 99 % 1014 hPa 0,0 l/m 8,8 km/h (2 Bft) O-SO45 120 0 min 0 lux 0 min 6,0 C 4,1 C
08.11.2011 04:39 6,0 C 99 % 1014 hPa 0,0 l/m 9,8 km/h (2 Bft) O-SO45 115 0 min 0 lux 0 min 5,9 C 3,3 C
08.11.2011 04:54 6,0 C 99 % 1014 hPa 0,0 l/m 7,8 km/h (2 Bft) S-SO22.5 160 0 min 0 lux 0 min 5,9 C 4,8 C
08.11.2011 05:09 6,1 C 99 % 1014 hPa 0,0 l/m 5,9 km/h (2 Bft) S-SO45 150 0 min 0 lux 0 min 6,0 C 6,1 C
08.11.2011 05:24 6,1 C 99 % 1014 hPa 0,0 l/m 8,5 km/h (2 Bft) N-NO45 30 0 min 0 lux 0 min 6,0 C 4,4 C
08.11.2011 05:39 6,2 C 99 % 1014 hPa 0,0 l/m 7,2 km/h (2 Bft) NO22.5 40 0 min 0 lux 0 min 6,1 C 5,5 C
08.11.2011 05:54 6,1 C 99 % 1014 hPa 0,0 l/m 1,7 km/h (1 Bft) N22.5 5 0 min 0 lux 0 min 6,0 C 6,1 C
08.11.2011 06:09 5,8 C 99 % 1014 hPa 0,0 l/m 6,1 km/h (2 Bft) O-SO22.5 110 0 min 0 lux 0 min 5,7 C 5,8 C
08.11.2011 06:24 5,6 C 99 % 1014 hPa 0,0 l/m 1,7 km/h (1 Bft) O22.5 80 0 min 0 lux 0 min 5,5 C 5,6 C
08.11.2011 06:39 5,4 C 99 % 1014 hPa 0,0 l/m 6,7 km/h (2 Bft) O-SO45 105 0 min 0 lux 0 min 5,3 C 5,2 C
08.11.2011 06:54 5,4 C 99 % 1014 hPa 0,0 l/m 7,0 km/h (2 Bft) O-NO45 70 0 min 0 lux 0 min 5,3 C 4,9 C
08.11.2011 07:09 5,7 C 99 % 1014 hPa 0,0 l/m 4,6 km/h (1 Bft) NO45 45 0 min 0 lux 0 min 5,6 C 5,7 C
08.11.2011 07:24 6,0 C 99 % 1014 hPa 0,0 l/m 10,8 km/h (2 Bft) N-NO45 30 0 min 162 lux 0 min 5,9 C 2,6 C
08.11.2011 07:39 6,0 C 99 % 1014 hPa 0,0 l/m 2,8 km/h (1 Bft) NW45 325 0 min 281 lux 0 min 5,9 C 6,0 C
08.11.2011 07:59 6,1 C 99 % 1014 hPa 0,0 l/m 5,5 km/h (1 Bft) NO22.5 45 0 min 718 lux 0 min 6,0 C 6,1 C
08.11.2011 08:15 6,2 C 99 % 1015 hPa 0,0 l/m 7,5 km/h (2 Bft) NO22.5 50 0 min 1,00 klux 0 min 6,1 C 5,3 C
08.11.2011 08:30 6,4 C 99 % 1015 hPa 0,0 l/m 11,0 km/h (2 Bft) NO22.5 55 0 min 1,48 klux 0 min 6,3 C 3,0 C
08.11.2011 08:45 6,5 C 99 % 1015 hPa 0,0 l/m 12,1 km/h (2 Bft) N-NO22.5 30 0 min 3,79 klux 0 min 6,4 C 2,4 C
08.11.2011 09:00 6,6 C 99 % 1015 hPa 0,0 l/m 11,1 km/h (2 Bft) NO45 50 0 min 4,42 klux 0 min 6,5 C 3,1 C
08.11.2011 09:15 6,8 C 99 % 1015 hPa 0,0 l/m 12,8 km/h (3 Bft) NO22.5 40 0 min 5,24 klux 0 min 6,7 C 2,4 C
08.11.2011 09:30 6,9 C 99 % 1015 hPa 0,0 l/m 14,3 km/h (3 Bft) O-NO45 65 0 min 5,40 klux 0 min 6,8 C 1,7 C
08.11.2011 09:45 7,0 C 99 % 1015 hPa 0,0 l/m 10,8 km/h (2 Bft) O-NO22.5 65 0 min 7,47 klux 0 min 6,9 C 3,8 C
08.11.2011 10:00 7,3 C 99 % 1015 hPa 0,0 l/m 8,9 km/h (2 Bft) O22.5 80 0 min 10,3 klux 0 min 7,2 C 5,4 C
08.11.2011 10:15 7,8 C 99 % 1015 hPa 0,0 l/m 11,5 km/h (2 Bft) O-NO 75 0 min 19,7 klux 0 min 7,7 C 4,3 C
08.11.2011 10:30 8,4 C 99 % 1015 hPa 0,0 l/m 10,6 km/h (2 Bft) O45 95 0 min 37,7 klux 0 min 8,3 C 5,5 C
08.11.2011 10:45 8,8 C 99 % 1015 hPa 0,0 l/m 10,6 km/h (2 Bft) SO 135 0 min 37,9 klux 0 min 8,7 C 5,9 C
08.11.2011 11:00 9,1 C 99 % 1015 hPa 0,0 l/m 11,9 km/h (2 Bft) O-SO45 115 15 min 39,8 klux 0 min 9,0 C 5,5 C
08.11.2011 11:15 9,3 C 98 % 1015 hPa 0,0 l/m 11,2 km/h (2 Bft) O-NO45 60 15 min 41,7 klux 0 min 9,0 C 6,1 C
08.11.2011 11:30 9,2 C 97 % 1015 hPa 0,0 l/m 11,1 km/h (2 Bft) NO22.5 55 15 min 41,8 klux 0 min 8,7 C 6,1 C
08.11.2011 11:45 9,2 C 96 % 1015 hPa 0,0 l/m 10,1 km/h (2 Bft) NO22.5 40 15 min 44,4 klux 0 min 8,6 C 6,7 C
08.11.2011 12:00 9,7 C 96 % 1015 hPa 0,0 l/m 8,9 km/h (2 Bft) NO22.5 35 15 min 44,4 klux 0 min 9,1 C 7,9 C
08.11.2011 12:15 10,4 C 95 % 1015 hPa 0,0 l/m 17,5 km/h (3 Bft) S22.5 175 15 min 44,3 klux 0 min 9,6 C 4,7 C
08.11.2011 12:30 11,0 C 93 % 1015 hPa 0,0 l/m 16,5 km/h (3 Bft) S-SW22.5 195 15 min 44,0 klux 0 min 9,9 C 5,8 C
08.11.2011 12:45 11,5 C 91 % 1015 hPa 0,0 l/m 12,4 km/h (3 Bft) S-SO 155 15 min 53,4 klux 0 min 10,1 C 8,1 C
08.11.2011 13:00 11,8 C 88 % 1015 hPa 0,0 l/m 19,0 km/h (3 Bft) S45 185 15 min 44,1 klux 0 min 9,9 C 5,9 C
08.11.2011 13:15 11,6 C 88 % 1014 hPa 0,0 l/m 15,0 km/h (3 Bft) S22.5 185 0 min 17,0 klux 0 min 9,7 C 7,1 C
08.11.2011 13:30 11,6 C 88 % 1014 hPa 0,0 l/m 16,0 km/h (3 Bft) SW45 225 0 min 20,8 klux 0 min 9,7 C 6,7 C
08.11.2011 13:45 11,9 C 88 % 1014 hPa 0,0 l/m 8,5 km/h (2 Bft) SW45 220 0 min 23,7 klux 0 min 10,0 C 10,5 C
08.11.2011 14:00 12,2 C 85 % 1015 hPa 0,0 l/m 11,4 km/h (2 Bft) S-SO22.5 165 0 min 30,0 klux 0 min 9,8 C 9,3 C
08.11.2011 14:15 12,0 C 84 % 1015 hPa 0,0 l/m 22,6 km/h (4 Bft) S-SW45 205 0 min 23,2 klux 0 min 9,4 C 5,1 C
08.11.2011 14:30 11,8 C 84 % 1015 hPa 0,0 l/m 17,5 km/h (3 Bft) S22.5 175 0 min 24,2 klux 0 min 9,2 C 6,4 C
08.11.2011 14:45 11,8 C 84 % 1015 hPa 0,0 l/m 17,4 km/h (3 Bft) S45 190 0 min 27,1 klux 0 min 9,2 C 6,4 C
08.11.2011 15:00 11,8 C 84 % 1015 hPa 0,0 l/m 7,9 km/h (2 Bft) S-SO22.5 160 0 min 23,5 klux 0 min 9,2 C 10,8 C
08.11.2011 15:15 11,4 C 84 % 1015 hPa 0,0 l/m 11,5 km/h (2 Bft) S-SO22.5 160 0 min 19,2 klux 0 min 8,8 C 8,4 C
08.11.2011 15:30 11,2 C 85 % 1015 hPa 0,0 l/m 9,2 km/h (2 Bft) S-SO22.5 160 0 min 21,1 klux 0 min 8,8 C 9,4 C
08.11.2011 15:45 11,0 C 85 % 1015 hPa 0,0 l/m 9,4 km/h (2 Bft) S22.5 170 0 min 14,5 klux 0 min 8,6 C 9,0 C
08.11.2011 16:00 10,7 C 85 % 1015 hPa 0,0 l/m 0,9 km/h (0 Bft) S 170 0 min 9,1 klux 0 min 8,3 C 10,7 C
08.11.2011 16:15 10,1 C 87 % 1015 hPa 0,0 l/m 0,0 km/h (0 Bft) S 170 0 min 4,92 klux 0 min 8,0 C 10,1 C
08.11.2011 16:30 9,7 C 87 % 1015 hPa 0,0 l/m 0,0 km/h (0 Bft) S 170 0 min 2,98 klux 0 min 7,6 C 9,7 C
08.11.2011 16:45 9,3 C 88 % 1015 hPa 0,0 l/m 0,0 km/h (0 Bft) S 170 0 min 2,33 klux 0 min 7,4 C 9,3 C
08.11.2011 17:00 8,9 C 89 % 1015 hPa 0,0 l/m 0,0 km/h (0 Bft) S 170 0 min 1,02 klux 0 min 7,2 C 8,9 C
08.11.2011 17:15 8,4 C 89 % 1015 hPa 0,0 l/m 0,0 km/h (0 Bft) S 170 0 min 297 lux 0 min 6,7 C 8,4 C
08.11.2011 17:30 7,8 C 90 % 1015 hPa 0,0 l/m 0,0 km/h (0 Bft) S 170 0 min 70 lux 0 min 6,3 C 7,8 C
08.11.2011 17:45 7,3 C 91 % 1015 hPa 0,0 l/m 0,0 km/h (0 Bft) S 170 0 min 6 lux 0 min 5,9 C 7,3 C
08.11.2011 18:00 7,1 C 92 % 1015 hPa 0,0 l/m 0,0 km/h (0 Bft) S 170 0 min 0 lux 0 min 5,9 C 7,1 C
08.11.2011 18:15 6,8 C 92 % 1015 hPa 0,0 l/m 0,0 km/h (0 Bft) S 170 0 min 0 lux 0 min 5,6 C 6,8 C
08.11.2011 18:30 6,4 C 92 % 1015 hPa 0,0 l/m 0,0 km/h (0 Bft) S 170 0 min 0 lux 0 min 5,2 C 6,4 C
08.11.2011 18:45 6,3 C 93 % 1015 hPa 0,0 l/m 0,0 km/h (0 Bft) S 170 0 min 0 lux 0 min 5,3 C 6,3 C
08.11.2011 19:00 6,0 C 93 % 1016 hPa 0,0 l/m 0,0 km/h (0 Bft) S 170 0 min 0 lux 0 min 5,0 C 6,0 C
08.11.2011 19:15 5,7 C 94 % 1016 hPa 0,0 l/m 0,0 km/h (0 Bft) S 170 0 min 0 lux 0 min 4,8 C 5,7 C
08.11.2011 19:30 5,6 C 94 % 1016 hPa 0,0 l/m 0,0 km/h (0 Bft) S 170 0 min 0 lux 0 min 4,7 C 5,6 C
08.11.2011 19:45 5,1 C 94 % 1016 hPa 0,0 l/m 0,0 km/h (0 Bft) S 170 0 min 0 lux 0 min 4,2 C 5,1 C
08.11.2011 20:00 4,7 C 94 % 1016 hPa 0,0 l/m 0,0 km/h (0 Bft) S 170 0 min 0 lux 0 min 3,8 C 4,7 C
08.11.2011 20:15 4,3 C 94 % 1016 hPa 0,0 l/m 0,0 km/h (0 Bft) S 170 0 min 0 lux 0 min 3,4 C 4,3 C
08.11.2011 20:30 3,9 C 94 % 1016 hPa 0,0 l/m 0,0 km/h (0 Bft) S 170 0 min 0 lux 0 min 3,0 C 3,9 C
08.11.2011 20:45 3,5 C 95 % 1016 hPa 0,0 l/m 0,0 km/h (0 Bft) S 170 0 min 0 lux 0 min 2,8 C 3,5 C
08.11.2011 21:00 3,4 C 95 % 1016 hPa 0,0 l/m 0,0 km/h (0 Bft) S 170 0 min 0 lux 0 min 2,7 C 3,4 C
08.11.2011 21:15 3,4 C 96 % 1016 hPa 0,0 l/m 0,0 km/h (0 Bft) S 170 0 min 0 lux 0 min 2,8 C 3,4 C
08.11.2011 21:30 3,2 C 95 % 1016 hPa 0,0 l/m 0,0 km/h (0 Bft) S 170 0 min 0 lux 0 min 2,5 C 3,2 C
08.11.2011 21:45 3,2 C 95 % 1016 hPa 0,0 l/m 0,0 km/h (0 Bft) S 170 0 min 0 lux 0 min 2,5 C 3,2 C
08.11.2011 22:00 3,1 C 95 % 1016 hPa 0,0 l/m 0,0 km/h (0 Bft) S 170 0 min 0 lux 0 min 2,4 C 3,1 C
08.11.2011 22:15 2,9 C 96 % 1016 hPa 0,0 l/m 0,0 km/h (0 Bft) S 170 0 min 0 lux 0 min 2,3 C 2,9 C
08.11.2011 22:30 3,5 C 97 % 1016 hPa 0,0 l/m 4,5 km/h (1 Bft) N-NO 15 0 min 0 lux 0 min 3,1 C 3,5 C
08.11.2011 22:45 3,8 C 97 % 1016 hPa 0,0 l/m 7,0 km/h (2 Bft) N-NO 30 0 min 0 lux 0 min 3,4 C 3,3 C
08.11.2011 23:00 3,7 C 97 % 1016 hPa 0,0 l/m 0,0 km/h (0 Bft) N-NO 30 0 min 0 lux 0 min 3,3 C 3,7 C
08.11.2011 23:15 3,5 C 97 % 1017 hPa 0,0 l/m 0,0 km/h (0 Bft) N-NO 30 0 min 0 lux 0 min 3,1 C 3,5 C
08.11.2011 23:30 3,4 C 97 % 1017 hPa 0,0 l/m 0,0 km/h (0 Bft) N-NO 30 0 min 0 lux 0 min 3,0 C 3,4 C
08.11.2011 23:45 3,5 C 97 % 1017 hPa 0,3 l/m 0,0 km/h (0 Bft) N-NO 30 0 min 0 lux 15 min 3,1 C 3,5 C
_ Min-Zeit 22:15 14:15 00:09 - 16:15 - - - - - 22:15 02:09
Minimum _ 2,9 C 84 % 1014 hPa - 0,0 km/h (0 Bft) - - - - - 2,3 C 0,2 C
_ Max-Zeit 14:00 00:09 23:15 23:45 14:15 - - 11:00 12:45 23:45 12:45 15:00
Maximum _ 12,2 C 99 % 1017 hPa 0,3 l/m 22,6 km/h
S-SW (4 Bft)
- - 15 min 53,4 klux 15 min 10,1 C 10,8 C
Durchschnitt _ 7,0 C 95 % 1015 hPa #0,3 l/m 7,1 km/h (2 Bft) O-NO - #2:15 h 8,41 klux #15 min. 6,3 C 5,2 C